Terminal Aerodrome Forecast
Issued by NWS

Current Version | Previous Version | Text Only | Print | Product List | Glossary On
Versions: 1 2 3 4 5 6 7 8 9 10 11 12
000
FTUS45 KABQ 310500
TAFROW
TAF
KROW 310536Z 3106/0106 02008KT P6SM SCT250
     FM311500 15010KT P6SM SCT250
     FM010000 18010KT P6SM SCT200=

USA.gov is the U.S. government's official web portal to all federal, state and local government web resources and services.